Time;durP1;ratioP1;P1;durP2;ratioP2;P2;SDS_P1;SDS_P2;PMS_P1;PMS_P2;Temp;Humidity;BMP_temperature;BMP_pressure;BME280_temperature;BME280_humidity;BME280_pressure;Samples;Min_cycle;Max_cycle;Signal;HPM_P1;HPM_P2
2021/10/25 00:01:51;;;;;;;3.67;1.10;;;15.50;87.20;;;;;;5073695;28;20042;-80
2021/10/25 00:04:17;;;;;;;3.15;1.10;;;15.50;87.20;;;;;;5057585;28;20466;-80
2021/10/25 00:06:43;;;;;;;4.47;1.50;;;15.50;87.20;;;;;;5040680;28;20021;-79
2021/10/25 00:09:09;;;;;;;4.30;1.42;;;15.40;86.80;;;;;;5070594;28;20033;-80
2021/10/25 00:11:34;;;;;;;3.40;1.17;;;15.40;87.20;;;;;;5072093;28;20025;-79
2021/10/25 00:14:00;;;;;;;6.13;1.48;;;15.40;87.80;;;;;;5072768;28;20020;-80
2021/10/25 00:16:25;;;;;;;7.25;1.70;;;15.40;87.50;;;;;;5072786;28;20036;-80
2021/10/25 00:18:51;;;;;;;4.57;1.33;;;15.40;88.10;;;;;;5073901;28;20469;-80
2021/10/25 00:21:17;;;;;;;5.43;1.20;;;15.40;87.70;;;;;;5043095;28;20021;-79
2021/10/25 00:23:42;;;;;;;4.97;1.30;;;15.40;87.50;;;;;;5068733;28;20115;-80
2021/10/25 00:26:08;;;;;;;3.78;1.33;;;15.40;87.70;;;;;;5083959;28;20059;-80
2021/10/25 00:28:34;;;;;;;7.10;1.52;;;15.40;87.40;;;;;;5072892;28;20036;-80
2021/10/25 00:31:00;;;;;;;7.07;1.45;;;15.40;87.20;;;;;;5073147;28;20052;-80
2021/10/25 00:33:26;;;;;;;5.32;1.30;;;15.50;87.30;;;;;;5072356;28;20111;-80
2021/10/25 00:35:52;;;;;;;4.90;1.38;;;15.50;87.30;;;;;;5072431;28;20040;-80
2021/10/25 00:38:18;;;;;;;7.88;1.73;;;15.50;87.10;;;;;;5071936;28;20016;-80
2021/10/25 00:40:44;;;;;;;6.50;1.48;;;15.50;87.20;;;;;;5054259;28;20410;-80
2021/10/25 00:43:10;;;;;;;5.90;1.40;;;15.50;87.00;;;;;;5038477;28;20013;-79
2021/10/25 00:45:36;;;;;;;4.70;1.20;;;15.40;86.70;;;;;;5054655;28;20040;-80
2021/10/25 00:48:02;;;;;;;4.70;1.40;;;15.40;87.50;;;;;;5072223;28;20069;-79
2021/10/25 00:50:28;;;;;;;4.32;1.60;;;15.40;87.20;;;;;;5071826;28;20389;-80
2021/10/25 00:52:54;;;;;;;5.85;1.50;;;15.40;87.20;;;;;;5071626;28;20032;-80
2021/10/25 00:55:20;;;;;;;8.13;1.27;;;15.40;87.70;;;;;;5037823;28;20025;-80
2021/10/25 00:57:46;;;;;;;5.07;1.55;;;15.40;87.40;;;;;;5059304;28;20359;-80
2021/10/25 01:00:12;;;;;;;5.68;1.40;;;15.40;88.40;;;;;;5069637;28;20444;-80
2021/10/25 01:02:39;;;;;;;3.83;1.20;;;15.30;87.50;;;;;;5071838;28;20030;-80
2021/10/25 01:05:06;;;;;;;6.25;1.70;;;15.30;88.20;;;;;;5071142;28;20043;-80
2021/10/25 01:07:33;;;;;;;9.18;1.60;;;15.20;88.30;;;;;;5056113;28;20017;-80
2021/10/25 01:09:59;;;;;;;5.60;1.23;;;15.20;88.60;;;;;;5068046;28;20457;-80
2021/10/25 01:12:26;;;;;;;5.22;1.23;;;15.20;88.80;;;;;;5071597;28;20020;-80
2021/10/25 01:14:51;;;;;;;6.80;1.40;;;15.20;88.80;;;;;;5071382;28;20040;-80
2021/10/25 01:17:17;;;;;;;4.55;1.08;;;15.20;88.70;;;;;;5071819;28;20027;-80
2021/10/25 01:19:43;;;;;;;8.20;1.30;;;15.20;88.60;;;;;;5071437;28;20029;-80
2021/10/25 01:22:08;;;;;;;4.78;1.38;;;15.20;88.90;;;;;;5055578;28;20537;-80
2021/10/25 01:24:34;;;;;;;3.70;1.40;;;15.20;88.90;;;;;;5082817;28;20035;-80
2021/10/25 01:27:00;;;;;;;3.80;1.10;;;15.20;89.10;;;;;;5075076;28;20035;-80
2021/10/25 01:29:25;;;;;;;5.47;1.75;;;15.20;88.80;;;;;;5071163;28;20412;-80
2021/10/25 01:31:51;;;;;;;6.53;1.55;;;15.30;89.80;;;;;;5071392;28;20405;-80
2021/10/25 01:34:17;;;;;;;5.10;1.45;;;15.30;88.40;;;;;;5071018;28;20033;-79
2021/10/25 01:36:43;;;;;;;3.35;1.20;;;15.20;88.80;;;;;;5056344;28;20059;-79
2021/10/25 01:39:09;;;;;;;4.25;1.25;;;15.20;88.90;;;;;;5068700;28;20519;-79
2021/10/25 01:41:35;;;;;;;4.70;1.38;;;15.20;89.10;;;;;;5071209;28;20052;-80
2021/10/25 01:44:01;;;;;;;2.42;1.08;;;15.20;88.90;;;;;;5071119;28;20032;-79
2021/10/25 01:46:27;;;;;;;4.72;1.30;;;15.20;89.20;;;;;;5071221;28;20123;-80
2021/10/25 01:48:53;;;;;;;4.35;1.45;;;15.20;89.30;;;;;;5057000;28;20430;-80
2021/10/25 01:51:18;;;;;;;5.32;1.60;;;15.20;88.90;;;;;;5069839;28;20044;-80
2021/10/25 01:53:45;;;;;;;5.60;1.60;;;15.10;89.00;;;;;;5052783;28;20036;-80
2021/10/25 01:56:12;;;;;;;4.85;1.42;;;15.10;89.30;;;;;;5070860;28;20103;-80
2021/10/25 01:58:38;;;;;;;5.18;1.48;;;15.10;89.50;;;;;;5070865;28;20029;-80
2021/10/25 02:01:05;;;;;;;4.20;1.48;;;15.10;89.40;;;;;;5055461;28;20025;-80
2021/10/25 02:03:32;;;;;;;8.48;1.73;;;15.20;89.80;;;;;;5058918;28;20033;-79
2021/10/25 02:05:58;;;;;;;5.57;1.55;;;15.20;89.50;;;;;;5048676;28;20035;-80
2021/10/25 02:08:24;;;;;;;6.80;1.42;;;15.20;89.60;;;;;;5070649;28;20056;-80
2021/10/25 02:10:49;;;;;;;5.78;1.45;;;15.30;89.40;;;;;;5070687;28;20113;-80
2021/10/25 02:13:18;;;;;;;7.55;2.00;;;15.30;89.30;;;;;;5071422;28;20036;-80
2021/10/25 02:15:46;;;;;;;6.63;1.40;;;15.30;89.10;;;;;;5055887;28;20044;-80
2021/10/25 02:18:13;;;;;;;6.40;1.60;;;15.30;89.30;;;;;;5068093;28;20590;-80
2021/10/25 02:20:42;;;;;;;5.35;1.42;;;15.30;89.10;;;;;;5070369;28;20104;-81
2021/10/25 02:23:09;;;;;;;9.45;1.88;;;15.30;88.70;;;;;;5070591;28;20056;-80
2021/10/25 02:25:35;;;;;;;6.43;1.25;;;15.20;88.90;;;;;;5085573;28;20037;-80
2021/10/25 02:28:03;;;;;;;3.97;1.30;;;15.10;88.70;;;;;;5071119;28;20027;-80
2021/10/25 02:30:30;;;;;;;6.72;1.20;;;15.10;89.00;;;;;;5070576;28;20032;-80
2021/10/25 02:32:56;;;;;;;4.28;1.27;;;15.20;89.20;;;;;;5070304;28;20024;-80
2021/10/25 02:35:22;;;;;;;6.57;1.60;;;15.20;89.20;;;;;;5070701;28;20055;-80
2021/10/25 02:37:48;;;;;;;4.25;1.25;;;15.10;89.10;;;;;;5070655;28;20059;-80
2021/10/25 02:40:15;;;;;;;4.75;1.33;;;15.10;89.30;;;;;;5054295;28;20025;-80
2021/10/25 02:42:41;;;;;;;7.22;1.30;;;15.10;89.20;;;;;;5053284;28;20037;-79
2021/10/25 02:45:07;;;;;;;5.32;1.50;;;15.10;89.20;;;;;;5072251;28;20555;-80
2021/10/25 02:47:33;;;;;;;4.07;0.98;;;15.20;89.00;;;;;;5074156;28;20027;-80
2021/10/25 02:49:59;;;;;;;4.45;1.10;;;15.10;89.30;;;;;;5074644;28;20408;-79
2021/10/25 02:52:24;;;;;;;3.80;1.00;;;15.20;89.20;;;;;;5056898;28;20047;-80
2021/10/25 02:54:50;;;;;;;2.88;1.02;;;15.20;89.00;;;;;;5075464;28;20397;-78
2021/10/25 02:57:16;;;;;;;5.40;1.25;;;15.10;89.10;;;;;;5074123;28;20025;-79
2021/10/25 02:59:42;;;;;;;3.83;0.80;;;15.10;88.90;;;;;;5074096;28;20488;-79
2021/10/25 03:02:11;;;;;;;3.50;0.95;;;15.10;89.20;;;;;;5074028;28;20021;-79
2021/10/25 03:04:37;;;;;;;2.08;0.77;;;15.20;89.50;;;;;;5074011;28;20041;-79
2021/10/25 03:07:03;;;;;;;3.03;1.00;;;15.10;89.30;;;;;;5074471;28;20548;-80
2021/10/25 03:09:29;;;;;;;4.25;1.33;;;15.10;89.30;;;;;;5074250;28;20034;-79
2021/10/25 03:11:54;;;;;;;4.60;1.15;;;15.20;89.50;;;;;;5073997;28;20393;-79
2021/10/25 03:14:20;;;;;;;2.92;1.10;;;15.10;89.60;;;;;;5053739;28;20029;-80
2021/10/25 03:16:46;;;;;;;3.63;1.23;;;15.10;89.00;;;;;;5059660;28;20025;-80
2021/10/25 03:19:12;;;;;;;3.83;1.05;;;15.10;89.20;;;;;;5040154;28;20040;-79
2021/10/25 03:21:37;;;;;;;5.13;1.20;;;15.10;89.60;;;;;;5074237;28;20506;-79
2021/10/25 03:24:03;;;;;;;2.65;1.00;;;15.10;89.40;;;;;;5080386;28;20024;-79
2021/10/25 03:26:29;;;;;;;4.10;1.00;;;15.10;89.20;;;;;;5078210;28;20111;-80
2021/10/25 03:28:55;;;;;;;5.07;1.05;;;15.00;88.50;;;;;;5061143;28;20020;-79
2021/10/25 03:31:21;;;;;;;4.70;1.10;;;14.80;88.90;;;;;;5073236;28;20875;-80
2021/10/25 03:33:48;;;;;;;4.10;1.10;;;14.80;88.90;;;;;;5074565;28;20374;-79
2021/10/25 03:36:16;;;;;;;3.58;0.90;;;14.70;89.00;;;;;;5073408;28;20031;-78
2021/10/25 03:38:43;;;;;;;3.70;1.05;;;14.70;89.30;;;;;;5050403;28;20025;-80
2021/10/25 03:41:15;;;;;;;2.97;0.95;;;14.60;89.40;;;;;;5062923;28;20104;-80
2021/10/25 03:43:47;;;;;;;3.63;1.03;;;14.60;89.60;;;;;;5073542;28;20028;-80
2021/10/25 03:46:22;;;;;;;4.40;1.27;;;14.50;89.50;;;;;;5073195;28;20637;-79
2021/10/25 03:49:54;;;;;;;5.93;1.20;;;14.50;90.20;;;;;;5058378;28;20455;-81
2021/10/25 03:51:44;;;;;;;3.80;1.40;;;14.40;89.50;;;;;;5064688;28;20412;-80
2021/10/25 04:13:36;;;;;;;3.22;1.10;;;14.50;89.60;;;;;;5058018;28;20099;-81
2021/10/25 04:29:15;;;;;;;3.85;1.13;;;14.20;90.10;;;;;;5072818;28;20027;-80
2021/10/25 04:31:41;;;;;;;4.00;1.10;;;14.10;90.00;;;;;;5073152;28;20074;-79
2021/10/25 04:34:06;;;;;;;3.35;0.85;;;14.10;90.30;;;;;;5073646;28;20717;-80
2021/10/25 04:36:32;;;;;;;4.22;1.30;;;14.00;90.00;;;;;;5073464;28;20108;-79
2021/10/25 04:38:57;;;;;;;3.58;1.10;;;14.10;90.30;;;;;;5073000;28;20024;-80
2021/10/25 04:41:23;;;;;;;2.88;1.10;;;14.10;90.10;;;;;;5072698;28;20500;-79
2021/10/25 04:43:49;;;;;;;2.40;1.00;;;14.00;90.10;;;;;;5072805;28;20021;-80
2021/10/25 04:46:14;;;;;;;4.15;1.08;;;13.90;90.00;;;;;;5072937;28;20048;-79
2021/10/25 04:48:41;;;;;;;9.27;3.40;;;13.90;90.30;;;;;;5073370;28;20025;-80
2021/10/25 04:51:07;;;;;;;4.32;1.40;;;13.90;90.40;;;;;;5072753;28;20025;-80
2021/10/25 04:53:33;;;;;;;5.13;1.60;;;13.90;90.40;;;;;;5050778;28;20039;-79
2021/10/25 04:55:58;;;;;;;3.42;1.20;;;13.80;90.60;;;;;;5059295;28;20025;-79
2021/10/25 04:58:24;;;;;;;4.38;1.40;;;13.70;90.50;;;;;;5055950;28;20036;-79
2021/10/25 05:00:49;;;;;;;4.22;1.15;;;13.80;90.50;;;;;;5073350;28;20024;-79
2021/10/25 05:03:15;;;;;;;4.25;1.40;;;13.80;90.40;;;;;;5044822;28;20029;-79
2021/10/25 05:05:41;;;;;;;4.95;1.17;;;13.80;90.50;;;;;;5066017;28;20110;-80
2021/10/25 05:08:06;;;;;;;5.65;1.60;;;13.70;90.40;;;;;;5071653;28;20044;-80
2021/10/25 05:10:32;;;;;;;3.78;1.33;;;13.70;90.50;;;;;;5054544;28;20539;-80
2021/10/25 05:12:59;;;;;;;4.45;1.17;;;13.70;90.60;;;;;;5068385;28;20024;-80
2021/10/25 05:15:25;;;;;;;4.22;1.33;;;13.70;90.70;;;;;;5060874;28;20032;-80
2021/10/25 05:17:51;;;;;;;5.07;1.60;;;13.80;90.80;;;;;;5063200;28;20077;-80
2021/10/25 05:20:17;;;;;;;4.40;1.25;;;13.90;90.70;;;;;;5071995;28;20543;-80
2021/10/25 05:22:42;;;;;;;3.58;1.17;;;13.90;90.70;;;;;;5072067;28;20028;-80
2021/10/25 05:25:08;;;;;;;4.78;1.20;;;14.00;90.70;;;;;;5087198;28;20040;-79
2021/10/25 05:27:35;;;;;;;5.35;1.23;;;14.00;90.60;;;;;;5071121;28;20020;-79
2021/10/25 05:30:01;;;;;;;5.03;1.60;;;14.10;90.60;;;;;;5071795;28;20111;-79
2021/10/25 05:32:26;;;;;;;2.90;1.20;;;14.10;90.40;;;;;;5071968;28;20021;-79
2021/10/25 05:34:52;;;;;;;4.32;1.08;;;14.10;90.20;;;;;;5071836;28;20142;-80
2021/10/25 05:37:18;;;;;;;3.90;1.20;;;14.00;90.20;;;;;;5071827;28;20024;-79
2021/10/25 05:39:44;;;;;;;4.18;1.20;;;14.10;90.20;;;;;;5054488;28;20056;-79
2021/10/25 05:42:10;;;;;;;3.42;1.13;;;14.10;90.30;;;;;;5071130;28;20041;-79
2021/10/25 05:44:36;;;;;;;3.50;0.93;;;14.10;90.30;;;;;;5071526;28;20024;-79
2021/10/25 05:47:03;;;;;;;5.32;1.20;;;14.10;90.30;;;;;;5071801;28;20101;-80
2021/10/25 05:49:29;;;;;;;4.28;1.20;;;14.00;90.20;;;;;;5071753;28;20785;-80
2021/10/25 05:51:55;;;;;;;5.20;1.17;;;14.10;90.20;;;;;;5072250;28;20031;-80
2021/10/25 05:54:21;;;;;;;4.75;0.90;;;14.10;90.30;;;;;;5060961;28;20473;-79
2021/10/25 05:56:47;;;;;;;4.55;1.30;;;14.10;90.30;;;;;;5065634;28;20032;-80
2021/10/25 05:59:14;;;;;;;4.63;1.13;;;14.10;90.30;;;;;;5071283;28;20473;-79
2021/10/25 06:01:56;;;;;;;4.57;1.33;;;14.10;90.70;;;;;;5073085;28;20065;-79
2021/10/25 06:04:24;;;;;;;5.68;1.25;;;14.20;90.30;;;;;;5075359;28;21778;-81
2021/10/25 06:06:49;;;;;;;4.20;1.00;;;14.20;90.20;;;;;;5072308;28;20493;-80
2021/10/25 06:09:15;;;;;;;3.55;1.00;;;14.20;90.30;;;;;;5070993;28;20063;-80
2021/10/25 06:11:42;;;;;;;3.47;1.00;;;14.20;90.10;;;;;;5071169;28;20131;-80
2021/10/25 06:14:09;;;;;;;5.22;1.23;;;14.20;90.10;;;;;;5071269;28;20071;-80
2021/10/25 06:16:39;;;;;;;2.22;1.10;;;14.10;90.00;;;;;;5071407;28;20031;-80
2021/10/25 06:19:07;;;;;;;4.88;1.00;;;14.10;90.10;;;;;;5071574;28;20393;-80
2021/10/25 06:21:33;;;;;;;6.10;1.38;;;14.00;90.10;;;;;;5071597;28;20028;-80
2021/10/25 06:24:00;;;;;;;5.05;1.23;;;13.90;90.20;;;;;;5076696;28;20542;-79
2021/10/25 06:26:27;;;;;;;4.70;0.98;;;13.90;90.30;;;;;;5079569;28;20037;-79
2021/10/25 06:28:53;;;;;;;5.38;1.15;;;13.80;90.20;;;;;;5070788;28;20056;-79
2021/10/25 06:31:19;;;;;;;5.05;1.30;;;13.80;90.30;;;;;;5070195;28;20123;-78
2021/10/25 06:33:46;;;;;;;4.15;1.30;;;13.80;90.40;;;;;;5070562;28;20400;-79
2021/10/25 06:36:13;;;;;;;4.53;1.25;;;13.80;90.60;;;;;;5071002;28;20389;-79
2021/10/25 06:39:09;;;;;;;5.53;1.13;;;13.80;90.50;;;;;;5070492;28;20028;-79
2021/10/25 06:41:28;;;;;;;7.50;1.50;;;13.80;90.50;;;;;;5069539;28;20045;-79
2021/10/25 06:43:53;;;;;;;4.05;1.10;;;13.80;90.50;;;;;;5071216;28;20116;-80
2021/10/25 06:46:19;;;;;;;3.78;1.33;;;13.90;90.50;;;;;;5070903;28;20045;-79
2021/10/25 06:48:46;;;;;;;5.70;1.35;;;13.90;90.50;;;;;;5071645;28;20028;-79
2021/10/25 06:51:11;;;;;;;5.45;1.50;;;13.80;90.40;;;;;;5070725;28;20502;-78
2021/10/25 06:53:37;;;;;;;4.68;1.30;;;13.90;90.50;;;;;;5047675;28;20113;-79
2021/10/25 06:56:03;;;;;;;7.35;1.63;;;14.00;90.50;;;;;;5057977;28;20032;-79
2021/10/25 06:58:29;;;;;;;5.97;1.30;;;14.00;90.40;;;;;;5070736;28;20056;-80
2021/10/25 07:00:59;;;;;;;5.65;1.40;;;14.10;90.50;;;;;;5071469;28;20053;-79
2021/10/25 07:03:26;;;;;;;5.22;1.65;;;14.20;90.50;;;;;;5070629;28;20041;-80
2021/10/25 07:05:52;;;;;;;2.95;1.10;;;14.20;90.30;;;;;;5070310;28;20040;-71
2021/10/25 07:08:18;;;;;;;5.70;1.38;;;14.30;90.30;;;;;;5069924;28;20024;-72
2021/10/25 07:10:44;;;;;;;8.30;1.80;;;14.30;90.20;;;;;;5071517;28;20501;-71
2021/10/25 07:13:10;;;;;;;5.75;1.30;;;14.40;90.10;;;;;;5082162;28;20493;-71
2021/10/25 07:15:44;;;;;;;7.68;1.60;;;14.40;90.10;;;;;;5058700;28;20025;-70
2021/10/25 07:18:16;;;;;;;5.63;1.50;;;14.50;90.00;;;;;;5067926;28;20485;-70
2021/10/25 08:02:11;;;;;;;5.60;1.77;;;14.50;89.60;;;;;;5062194;28;20063;-80
2021/10/25 08:12:06;;;;;;;5.15;2.00;;;14.40;90.10;;;;;;5068393;28;20028;-79
2021/10/25 08:14:43;;;;;;;6.13;1.85;;;14.40;90.20;;;;;;5072120;28;20540;-78
2021/10/25 08:17:15;;;;;;;4.38;1.60;;;14.50;90.30;;;;;;5072775;28;20043;-79
2021/10/25 08:19:41;;;;;;;5.82;1.77;;;14.50;90.10;;;;;;5072375;28;20047;-80
2021/10/25 08:22:11;;;;;;;5.95;1.70;;;14.60;90.40;;;;;;5069825;28;20401;-80
2021/10/25 08:24:48;;;;;;;7.15;1.90;;;14.70;90.30;;;;;;5084060;28;20027;-78
2021/10/25 08:27:16;;;;;;;8.20;2.15;;;14.80;90.40;;;;;;5074696;28;20053;-80
2021/10/25 08:29:45;;;;;;;9.32;2.65;;;14.90;90.10;;;;;;5067999;28;20482;-78
2021/10/25 08:39:58;;;;;;;5.75;1.98;;;14.90;89.80;;;;;;5073164;28;20078;-79
2021/10/25 08:42:31;;;;;;;5.15;1.75;;;15.00;89.80;;;;;;5071012;28;20068;-78
2021/10/25 08:45:34;;;;;;;7.00;1.80;;;15.00;89.80;;;;;;5072080;28;20174;-78
2021/10/25 08:47:53;;;;;;;8.05;2.00;;;15.00;89.80;;;;;;5069817;28;20396;-77
2021/10/25 08:50:24;;;;;;;8.50;2.50;;;15.00;89.40;;;;;;5051341;28;20107;-78
2021/10/25 08:52:51;;;;;;;5.97;2.45;;;15.00;89.60;;;;;;5058646;28;20528;-77
2021/10/25 08:55:18;;;;;;;24.83;12.60;;;15.10;89.90;;;;;;5071910;28;20036;-76
2021/10/25 08:57:49;;;;;;;16.05;5.38;;;15.10;90.10;;;;;;5052584;28;20056;-77
2021/10/25 09:00:21;;;;;;;7.60;2.97;;;15.60;90.60;;;;;;5071872;28;20046;-77
2021/10/25 09:02:58;;;;;;;10.45;2.78;;;15.80;90.20;;;;;;5072030;28;20025;-77
2021/10/25 09:05:24;;;;;;;6.47;2.20;;;16.50;90.80;;;;;;5071487;28;20406;-78
2021/10/25 09:08:03;;;;;;;7.10;2.50;;;17.10;89.30;;;;;;5071932;28;20088;-78
2021/10/25 09:10:33;;;;;;;5.45;1.85;;;17.40;86.40;;;;;;5072001;28;20028;-78
2021/10/25 09:13:16;;;;;;;5.15;1.83;;;17.30;83.70;;;;;;5068135;28;20131;-77
2021/10/25 09:15:45;;;;;;;7.97;2.27;;;17.00;83.90;;;;;;5072458;28;20085;-78
2021/10/25 09:18:13;;;;;;;3.88;1.83;;;16.60;84.40;;;;;;5071521;28;20300;-77
2021/10/25 09:21:00;;;;;;;4.85;1.50;;;16.40;84.60;;;;;;5071299;28;20033;-77
2021/10/25 09:23:36;;;;;;;5.47;1.80;;;16.20;85.90;;;;;;5072567;28;20070;-78
2021/10/25 09:26:13;;;;;;;6.30;1.70;;;16.10;86.30;;;;;;5082470;28;20105;-77
2021/10/25 09:28:50;;;;;;;4.60;1.60;;;16.00;86.30;;;;;;5056734;28;20055;-77
2021/10/25 09:31:51;;;;;;;3.53;1.30;;;16.00;87.40;;;;;;5071434;28;20027;-78
2021/10/25 09:34:14;;;;;;;;;;;16.00;87.20;;;;;;5067054;28;20131;-77
2021/10/25 09:36:45;;;;;;;4.35;1.25;;;16.00;87.30;;;;;;5072142;28;19977;-78
2021/10/25 09:40:03;;;;;;;3.63;1.20;;;16.00;87.50;;;;;;5071594;28;20381;-78
2021/10/25 09:42:24;;;;;;;4.35;1.20;;;16.00;87.80;;;;;;5060176;28;20037;-77
2021/10/25 09:45:38;;;;;;;4.47;1.20;;;16.00;87.60;;;;;;5047415;28;20485;-79
2021/10/25 09:50:52;;;;;;;5.07;1.40;;;16.00;87.70;;;;;;5059836;28;20033;-79
2021/10/25 09:53:41;;;;;;;4.22;1.42;;;16.00;87.90;;;;;;5061592;28;20027;-78
2021/10/25 09:56:10;;;;;;;3.40;1.33;;;16.10;87.70;;;;;;5070704;28;20401;-78
2021/10/25 09:58:46;;;;;;;2.47;1.30;;;16.00;87.70;;;;;;5070611;28;20024;-74
2021/10/25 10:01:14;;;;;;;4.82;1.20;;;16.00;87.70;;;;;;5070343;28;20020;-75
2021/10/25 10:03:40;;;;;;;6.20;1.83;;;16.10;87.80;;;;;;5071629;28;20030;-75
2021/10/25 10:06:06;;;;;;;4.35;1.42;;;16.20;88.10;;;;;;5070729;28;20044;-76
2021/10/25 10:08:34;;;;;;;3.28;1.40;;;16.70;89.70;;;;;;5070526;28;20056;-73
2021/10/25 10:11:00;;;;;;;3.60;1.48;;;17.00;87.30;;;;;;5070938;28;20024;-72
2021/10/25 10:13:27;;;;;;;5.30;1.52;;;17.40;89.00;;;;;;5070592;28;20032;-71
2021/10/25 10:15:55;;;;;;;3.38;1.33;;;19.10;90.90;;;;;;5071196;28;20111;-71
2021/10/25 10:18:23;;;;;;;5.15;1.42;;;20.90;84.20;;;;;;5070420;28;20370;-71
2021/10/25 10:20:56;;;;;;;3.40;1.13;;;22.40;83.40;;;;;;5046496;28;20033;-72
2021/10/25 10:23:22;;;;;;;;;;;23.30;76.00;;;;;;5061925;28;20013;-72
2021/10/25 10:25:53;;;;;;;3.03;0.95;;;24.90;84.90;;;;;;5084069;28;19920;-70
2021/10/25 10:28:42;;;;;;;3.60;0.82;;;26.00;64.50;;;;;;5069906;28;20021;-73
2021/10/25 10:31:09;;;;;;;3.20;0.80;;;24.80;62.40;;;;;;5055452;28;20368;-72
2021/10/25 10:33:41;;;;;;;2.28;1.00;;;23.70;61.30;;;;;;5065101;28;20028;-73
2021/10/25 10:36:26;;;;;;;1.70;1.00;;;23.00;67.10;;;;;;5068294;28;20044;-72
2021/10/25 10:39:00;;;;;;;2.05;0.95;;;23.70;66.50;;;;;;5071515;28;20104;-73
2021/10/25 10:41:43;;;;;;;1.98;0.77;;;23.60;65.00;;;;;;5071896;28;20052;-73
2021/10/25 10:44:12;;;;;;;2.47;0.90;;;23.80;69.00;;;;;;5080764;28;20024;-73
2021/10/25 10:46:39;;;;;;;4.10;1.00;;;23.40;61.30;;;;;;5075290;28;20040;-73
2021/10/25 10:49:05;;;;;;;3.47;0.98;;;22.50;63.60;;;;;;5080494;28;20020;-79
2021/10/25 10:51:33;;;;;;;2.75;0.68;;;22.50;66.10;;;;;;5082349;28;20028;-73
2021/10/25 10:54:06;;;;;;;138.95;86.43;;;22.10;63.70;;;;;;5071534;28;20025;-73
2021/10/25 10:56:53;;;;;;;22.05;14.10;;;21.40;65.10;;;;;;5079914;28;20021;-73
2021/10/25 10:59:32;;;;;;;13.73;8.80;;;22.00;68.80;;;;;;5051871;28;20683;-73
2021/10/25 11:01:58;;;;;;;9.68;6.57;;;21.80;67.20;;;;;;5080339;28;20021;-74
2021/10/25 11:04:29;;;;;;;6.95;3.63;;;23.30;75.60;;;;;;5054626;28;20043;-74
2021/10/25 11:06:59;;;;;;;4.85;2.50;;;24.10;62.30;;;;;;5076360;28;20039;-72
2021/10/25 11:09:30;;;;;;;3.92;1.75;;;25.00;64.30;;;;;;5076282;28;20021;-72
2021/10/25 11:12:06;;;;;;;3.53;1.50;;;26.50;57.10;;;;;;5075706;28;20053;-73
2021/10/25 11:14:35;;;;;;;2.25;1.02;;;25.30;55.20;;;;;;5081361;28;20396;-73
2021/10/25 11:17:20;;;;;;;2.42;0.90;;;25.20;57.20;;;;;;5059086;28;20119;-72
2021/10/25 11:19:55;;;;;;;2.05;0.80;;;25.50;56.30;;;;;;5085605;28;20369;-75
2021/10/25 11:22:39;;;;;;;1.95;0.80;;;25.70;57.20;;;;;;5074045;28;20448;-74
2021/10/25 11:25:07;;;;;;;1.50;0.70;;;27.40;60.50;;;;;;5079286;28;20118;-73
2021/10/25 11:27:39;;;;;;;2.00;0.80;;;28.20;51.40;;;;;;5078296;28;20024;-73
2021/10/25 11:30:13;;;;;;;3.00;0.90;;;28.60;49.90;;;;;;5074175;28;20444;-73
2021/10/25 11:32:39;;;;;;;1.85;0.70;;;28.80;47.30;;;;;;5081168;28;20028;-73
2021/10/25 11:35:09;;;;;;;1.55;0.50;;;28.90;46.20;;;;;;5072202;28;20103;-73
2021/10/25 11:37:35;;;;;;;1.17;0.50;;;29.40;48.10;;;;;;5071259;28;20024;-73
2021/10/25 11:40:11;;;;;;;2.70;0.57;;;30.00;46.80;;;;;;5078132;28;20040;-73
2021/10/25 11:42:42;;;;;;;1.83;0.85;;;28.70;42.10;;;;;;5073033;28;20119;-74
2021/10/25 11:45:11;;;;;;;2.60;0.70;;;26.70;45.30;;;;;;5054082;28;20115;-73
2021/10/25 11:47:39;;;;;;;2.20;1.00;;;25.20;47.80;;;;;;5072083;28;20028;-74
2021/10/25 11:50:16;;;;;;;2.15;0.60;;;25.40;52.60;;;;;;5072498;28;20025;-74
2021/10/25 11:52:58;;;;;;;2.05;0.70;;;25.70;54.10;;;;;;5069917;28;20014;-74
2021/10/25 11:55:36;;;;;;;1.98;0.70;;;25.70;53.40;;;;;;5052815;28;20036;-72
2021/10/25 11:58:22;;;;;;;3.20;0.65;;;24.90;50.60;;;;;;5071756;28;20021;-72
2021/10/25 12:00:51;;;;;;;5.95;1.67;;;23.80;53.00;;;;;;5058458;28;20633;-73
2021/10/25 12:03:21;;;;;;;3.28;0.90;;;23.70;54.50;;;;;;5054941;28;20493;-72
2021/10/25 12:05:47;;;;;;;2.97;0.70;;;23.50;54.40;;;;;;5059164;28;20040;-73
2021/10/25 12:08:16;;;;;;;2.35;0.80;;;23.60;55.90;;;;;;5064871;28;20031;-73
2021/10/25 12:10:44;;;;;;;3.35;0.80;;;23.60;54.80;;;;;;5074754;28;20082;-73
2021/10/25 12:13:10;;;;;;;3.33;0.85;;;23.60;57.20;;;;;;5072075;28;20033;-73
2021/10/25 12:15:46;;;;;;;1.70;0.63;;;23.80;55.50;;;;;;5074923;28;20047;-73
2021/10/25 12:18:19;;;;;;;3.10;0.80;;;24.10;56.50;;;;;;5077409;28;20507;-73
2021/10/25 12:20:45;;;;;;;;;;;24.30;55.00;;;;;;5072410;28;20025;-73
2021/10/25 12:23:15;;;;;;;2.90;0.73;;;24.30;55.80;;;;;;5071632;28;19923;-73
2021/10/25 12:25:41;;;;;;;1.45;0.60;;;23.90;53.40;;;;;;5053193;28;20040;-74
2021/10/25 12:28:19;;;;;;;1.88;0.60;;;24.10;53.90;;;;;;5071936;28;20020;-74
2021/10/25 12:30:50;;;;;;;1.60;0.60;;;24.40;55.50;;;;;;5070471;28;20081;-74
2021/10/25 12:33:23;;;;;;;3.00;0.80;;;24.60;54.50;;;;;;5053914;28;20028;-73
2021/10/25 12:35:50;;;;;;;3.50;0.75;;;24.30;52.10;;;;;;5071464;28;20082;-73
2021/10/25 12:38:21;;;;;;;4.63;1.02;;;24.50;53.40;;;;;;5071539;28;20043;-73
2021/10/25 12:40:58;;;;;;;5.13;1.17;;;24.70;53.60;;;;;;5071203;28;20041;-73
2021/10/25 12:43:24;;;;;;;2.80;0.70;;;24.90;53.40;;;;;;5071486;28;20025;-73
2021/10/25 12:46:06;;;;;;;3.03;0.82;;;25.10;52.70;;;;;;5056908;28;20032;-74
2021/10/25 12:48:41;;;;;;;2.93;0.90;;;25.50;54.10;;;;;;5071886;28;20512;-73
2021/10/25 12:51:07;;;;;;;2.45;0.50;;;25.80;51.40;;;;;;5075967;28;20032;-73
2021/10/25 12:53:34;;;;;;;1.80;0.60;;;25.90;49.50;;;;;;5071879;28;20029;-73
2021/10/25 12:56:00;;;;;;;3.90;1.05;;;26.40;48.80;;;;;;5064300;28;20501;-72
2021/10/25 12:58:27;;;;;;;3.45;0.77;;;26.80;46.90;;;;;;5074238;28;20025;-73
2021/10/25 13:00:53;;;;;;;2.90;1.60;;;27.40;49.10;;;;;;5068045;28;20040;-74
2021/10/25 13:03:19;;;;;;;3.33;1.05;;;28.10;46.10;;;;;;5072760;28;20016;-72
2021/10/25 13:05:52;;;;;;;4.53;1.10;;;28.40;44.50;;;;;;5073964;28;20127;-73
2021/10/25 13:08:23;;;;;;;3.63;1.55;;;26.80;42.10;;;;;;5071245;28;20121;-73
2021/10/25 13:10:49;;;;;;;2.85;0.95;;;25.90;47.80;;;;;;5071648;28;20017;-73
2021/10/25 13:13:16;;;;;;;3.00;1.40;;;26.00;45.70;;;;;;5071841;28;20021;-73
2021/10/25 13:15:43;;;;;;;2.60;1.48;;;25.70;46.00;;;;;;5072554;28;20480;-73
2021/10/25 13:18:11;;;;;;;3.63;2.03;;;27.40;51.10;;;;;;5071763;28;20493;-73
2021/10/25 13:20:40;;;;;;;3.72;1.50;;;29.30;44.90;;;;;;5071915;28;20075;-73
2021/10/25 13:23:08;;;;;;;2.72;1.42;;;30.60;41.50;;;;;;5054175;28;20489;-72
2021/10/25 13:25:34;;;;;;;3.53;1.50;;;30.50;36.90;;;;;;5085975;28;20040;-74
2021/10/25 13:28:02;;;;;;;3.60;1.00;;;28.30;36.30;;;;;;5067980;28;20078;-74
2021/10/25 13:30:29;;;;;;;2.42;0.80;;;26.90;39.60;;;;;;5070711;28;20035;-73
2021/10/25 13:32:55;;;;;;;3.80;1.00;;;25.90;42.10;;;;;;5071381;28;20394;-73
2021/10/25 13:35:22;;;;;;;2.75;0.98;;;25.30;44.90;;;;;;5071535;28;20032;-72
2021/10/25 13:37:55;;;;;;;3.00;0.75;;;24.50;45.50;;;;;;5071731;28;20052;-73
2021/10/25 13:40:23;;;;;;;2.38;0.90;;;24.00;47.50;;;;;;5071154;28;20078;-71
2021/10/25 13:42:50;;;;;;;4.57;0.90;;;23.60;48.60;;;;;;5057880;28;20036;-74
2021/10/25 13:45:16;;;;;;;4.15;1.05;;;23.00;49.70;;;;;;5069812;28;20425;-73
2021/10/25 13:47:41;;;;;;;3.55;0.70;;;22.50;51.20;;;;;;5071342;28;20039;-73
2021/10/25 13:50:08;;;;;;;3.15;0.73;;;22.20;52.20;;;;;;5070810;28;20040;-74
2021/10/25 13:52:35;;;;;;;3.67;0.70;;;22.00;53.10;;;;;;5071602;28;20502;-72
2021/10/25 13:55:00;;;;;;;2.05;0.70;;;21.80;53.20;;;;;;5067555;28;20056;-74
2021/10/25 13:57:27;;;;;;;2.80;0.85;;;21.60;54.10;;;;;;5070918;28;20059;-73
2021/10/25 13:59:53;;;;;;;3.30;0.70;;;21.30;54.30;;;;;;5071207;28;20111;-74
2021/10/25 14:02:27;;;;;;;3.80;1.00;;;21.00;54.40;;;;;;5070825;28;20039;-74
2021/10/25 14:04:56;;;;;;;2.03;0.68;;;20.70;54.90;;;;;;5071000;28;20058;-73
2021/10/25 14:07:22;;;;;;;4.00;1.40;;;20.50;55.90;;;;;;5071054;28;20024;-73
2021/10/25 14:09:56;;;;;;;3.80;0.95;;;20.50;56.70;;;;;;5071050;28;20484;-73
2021/10/25 14:12:25;;;;;;;3.28;0.70;;;20.50;57.40;;;;;;5070928;28;20020;-73
2021/10/25 14:14:52;;;;;;;3.45;0.90;;;20.50;57.70;;;;;;5053318;28;20037;-73
2021/10/25 14:17:19;;;;;;;2.55;0.80;;;20.60;57.80;;;;;;5051663;28;20159;-73
2021/10/25 14:19:45;;;;;;;4.28;0.70;;;20.60;57.70;;;;;;5056782;28;20472;-73
2021/10/25 14:22:11;;;;;;;2.38;0.60;;;20.70;57.90;;;;;;5055184;28;20485;-72
2021/10/25 14:24:39;;;;;;;4.72;0.80;;;20.60;58.00;;;;;;5083257;28;20047;-74
2021/10/25 14:27:05;;;;;;;3.17;0.85;;;20.70;58.50;;;;;;5074699;28;20029;-73
2021/10/25 14:29:31;;;;;;;4.15;0.85;;;20.70;58.40;;;;;;5070815;28;20080;-73